sensor_id;sensor_type;location;lat;lon;timestamp;temperature;humidity
9223;DHT22;7557;51.698;3.942;2023-05-10T00:01:02;13.60;99.90
9223;DHT22;7557;51.698;3.942;2023-05-10T00:03:29;13.50;99.90
9223;DHT22;7557;51.698;3.942;2023-05-10T00:05:58;13.50;99.90
9223;DHT22;7557;51.698;3.942;2023-05-10T00:08:25;13.40;99.90
9223;DHT22;7557;51.698;3.942;2023-05-10T00:10:53;13.40;99.90
9223;DHT22;7557;51.698;3.942;2023-05-10T00:13:20;13.40;99.90
9223;DHT22;7557;51.698;3.942;2023-05-10T00:15:47;13.40;99.90
9223;DHT22;7557;51.698;3.942;2023-05-10T00:18:14;13.40;99.90
9223;DHT22;7557;51.698;3.942;2023-05-10T00:20:41;13.40;99.90
9223;DHT22;7557;51.698;3.942;2023-05-10T00:23:10;13.40;99.90
9223;DHT22;7557;51.698;3.942;2023-05-10T00:25:37;13.50;99.90
9223;DHT22;7557;51.698;3.942;2023-05-10T00:28:04;13.50;99.90
9223;DHT22;7557;51.698;3.942;2023-05-10T00:30:32;13.50;99.90
9223;DHT22;7557;51.698;3.942;2023-05-10T00:32:59;13.50;99.90
9223;DHT22;7557;51.698;3.942;2023-05-10T00:35:26;13.40;99.90
9223;DHT22;7557;51.698;3.942;2023-05-10T00:37:53;13.40;99.90
9223;DHT22;7557;51.698;3.942;2023-05-10T00:40:22;13.40;99.90
9223;DHT22;7557;51.698;3.942;2023-05-10T00:42:49;13.40;99.90
9223;DHT22;7557;51.698;3.942;2023-05-10T00:45:17;13.40;99.90
9223;DHT22;7557;51.698;3.942;2023-05-10T00:51:01;13.50;99.90
9223;DHT22;7557;51.698;3.942;2023-05-10T00:53:31;13.60;99.90
9223;DHT22;7557;51.698;3.942;2023-05-10T00:56:00;13.60;99.90
9223;DHT22;7557;51.698;3.942;2023-05-10T00:58:28;13.60;99.90
9223;DHT22;7557;51.698;3.942;2023-05-10T01:00:56;13.60;99.90
9223;DHT22;7557;51.698;3.942;2023-05-10T01:03:25;13.60;99.90
9223;DHT22;7557;51.698;3.942;2023-05-10T01:05:52;13.60;99.90
9223;DHT22;7557;51.698;3.942;2023-05-10T01:08:19;13.70;99.90
9223;DHT22;7557;51.698;3.942;2023-05-10T01:10:47;13.60;99.90
9223;DHT22;7557;51.698;3.942;2023-05-10T01:13:18;13.70;99.90
9223;DHT22;7557;51.698;3.942;2023-05-10T01:15:49;13.70;99.90
9223;DHT22;7557;51.698;3.942;2023-05-10T01:18:19;13.70;99.90
9223;DHT22;7557;51.698;3.942;2023-05-10T01:20:51;13.80;99.90
9223;DHT22;7557;51.698;3.942;2023-05-10T01:23:35;13.80;99.90
9223;DHT22;7557;51.698;3.942;2023-05-10T01:26:16;13.80;99.90
9223;DHT22;7557;51.698;3.942;2023-05-10T01:29:21;13.80;99.90
9223;DHT22;7557;51.698;3.942;2023-05-10T01:32:15;13.80;99.90
9223;DHT22;7557;51.698;3.942;2023-05-10T01:34:50;13.90;99.90
9223;DHT22;7557;51.698;3.942;2023-05-10T01:37:25;13.90;99.90
9223;DHT22;7557;51.698;3.942;2023-05-10T01:39:59;13.90;99.90
9223;DHT22;7557;51.698;3.942;2023-05-10T01:42:32;13.90;99.90
9223;DHT22;7557;51.698;3.942;2023-05-10T01:45:16;13.90;99.90
9223;DHT22;7557;51.698;3.942;2023-05-10T01:47:51;13.90;99.90
9223;DHT22;7557;51.698;3.942;2023-05-10T01:50:24;13.90;99.90
9223;DHT22;7557;51.698;3.942;2023-05-10T01:52:56;14.00;99.90
9223;DHT22;7557;51.698;3.942;2023-05-10T01:55:26;14.00;99.90
9223;DHT22;7557;51.698;3.942;2023-05-10T01:58:02;14.00;99.90
9223;DHT22;7557;51.698;3.942;2023-05-10T02:00:30;14.00;99.90
9223;DHT22;7557;51.698;3.942;2023-05-10T02:03:01;13.90;99.90
9223;DHT22;7557;51.698;3.942;2023-05-10T02:05:31;14.00;99.90
9223;DHT22;7557;51.698;3.942;2023-05-10T02:08:05;13.90;99.90
9223;DHT22;7557;51.698;3.942;2023-05-10T02:10:34;14.00;99.90
9223;DHT22;7557;51.698;3.942;2023-05-10T02:13:03;14.00;99.90
9223;DHT22;7557;51.698;3.942;2023-05-10T02:15:33;14.00;99.90
9223;DHT22;7557;51.698;3.942;2023-05-10T02:18:02;14.00;99.90
9223;DHT22;7557;51.698;3.942;2023-05-10T02:20:32;14.00;99.90
9223;DHT22;7557;51.698;3.942;2023-05-10T02:23:03;14.00;99.90
9223;DHT22;7557;51.698;3.942;2023-05-10T02:25:32;14.00;99.90
9223;DHT22;7557;51.698;3.942;2023-05-10T02:28:03;14.00;99.90
9223;DHT22;7557;51.698;3.942;2023-05-10T02:30:32;14.00;99.90
9223;DHT22;7557;51.698;3.942;2023-05-10T02:33:02;14.00;99.90
9223;DHT22;7557;51.698;3.942;2023-05-10T02:35:31;14.00;99.90
9223;DHT22;7557;51.698;3.942;2023-05-10T02:37:59;14.00;99.90
9223;DHT22;7557;51.698;3.942;2023-05-10T02:40:28;14.00;99.90
9223;DHT22;7557;51.698;3.942;2023-05-10T02:42:56;13.90;99.90
9223;DHT22;7557;51.698;3.942;2023-05-10T02:45:28;14.00;99.90
9223;DHT22;7557;51.698;3.942;2023-05-10T02:47:56;14.00;99.90
9223;DHT22;7557;51.698;3.942;2023-05-10T02:50:27;14.00;99.90
9223;DHT22;7557;51.698;3.942;2023-05-10T02:53:00;14.00;99.90
9223;DHT22;7557;51.698;3.942;2023-05-10T02:55:32;14.00;99.90
9223;DHT22;7557;51.698;3.942;2023-05-10T02:58:01;14.00;99.90
9223;DHT22;7557;51.698;3.942;2023-05-10T03:00:28;14.00;99.90
9223;DHT22;7557;51.698;3.942;2023-05-10T03:02:56;14.00;99.90
9223;DHT22;7557;51.698;3.942;2023-05-10T03:05:24;14.00;99.90
9223;DHT22;7557;51.698;3.942;2023-05-10T03:07:52;14.00;99.90
9223;DHT22;7557;51.698;3.942;2023-05-10T03:10:21;14.00;99.90
9223;DHT22;7557;51.698;3.942;2023-05-10T03:15:45;14.00;99.90
9223;DHT22;7557;51.698;3.942;2023-05-10T03:18:18;14.00;99.90
9223;DHT22;7557;51.698;3.942;2023-05-10T03:20:53;13.90;99.90
9223;DHT22;7557;51.698;3.942;2023-05-10T03:23:29;14.00;99.90
9223;DHT22;7557;51.698;3.942;2023-05-10T03:25:57;13.90;99.90
9223;DHT22;7557;51.698;3.942;2023-05-10T03:28:25;13.90;99.90
9223;DHT22;7557;51.698;3.942;2023-05-10T03:30:53;13.90;99.90
9223;DHT22;7557;51.698;3.942;2023-05-10T03:33:21;13.90;99.90
9223;DHT22;7557;51.698;3.942;2023-05-10T03:35:50;13.90;99.90
9223;DHT22;7557;51.698;3.942;2023-05-10T03:38:17;13.90;99.90
9223;DHT22;7557;51.698;3.942;2023-05-10T03:40:44;13.80;99.90
9223;DHT22;7557;51.698;3.942;2023-05-10T03:43:11;13.80;99.90
9223;DHT22;7557;51.698;3.942;2023-05-10T03:45:39;13.80;99.90
9223;DHT22;7557;51.698;3.942;2023-05-10T03:48:06;13.80;99.90
9223;DHT22;7557;51.698;3.942;2023-05-10T03:50:33;13.80;99.90
9223;DHT22;7557;51.698;3.942;2023-05-10T03:53:02;13.80;99.90
9223;DHT22;7557;51.698;3.942;2023-05-10T03:55:29;13.80;99.90
9223;DHT22;7557;51.698;3.942;2023-05-10T03:58:00;13.80;99.90
9223;DHT22;7557;51.698;3.942;2023-05-10T04:00:27;13.80;99.90
9223;DHT22;7557;51.698;3.942;2023-05-10T04:02:54;13.80;99.90
9223;DHT22;7557;51.698;3.942;2023-05-10T04:05:21;13.80;99.90
9223;DHT22;7557;51.698;3.942;2023-05-10T04:07:49;13.80;99.90
9223;DHT22;7557;51.698;3.942;2023-05-10T04:10:18;13.80;99.90
9223;DHT22;7557;51.698;3.942;2023-05-10T04:12:46;13.80;99.90
9223;DHT22;7557;51.698;3.942;2023-05-10T04:15:13;13.80;99.90
9223;DHT22;7557;51.698;3.942;2023-05-10T04:17:40;13.90;99.90
9223;DHT22;7557;51.698;3.942;2023-05-10T04:20:08;13.80;99.90
9223;DHT22;7557;51.698;3.942;2023-05-10T04:22:36;13.80;99.90
9223;DHT22;7557;51.698;3.942;2023-05-10T04:25:05;13.80;99.90
9223;DHT22;7557;51.698;3.942;2023-05-10T04:27:34;13.80;99.90
9223;DHT22;7557;51.698;3.942;2023-05-10T04:30:02;13.80;99.90
9223;DHT22;7557;51.698;3.942;2023-05-10T04:32:30;13.90;99.90
9223;DHT22;7557;51.698;3.942;2023-05-10T04:34:57;13.90;99.90
9223;DHT22;7557;51.698;3.942;2023-05-10T04:37:24;13.80;99.90
9223;DHT22;7557;51.698;3.942;2023-05-10T04:39:51;13.80;99.90
9223;DHT22;7557;51.698;3.942;2023-05-10T04:42:18;13.80;99.90
9223;DHT22;7557;51.698;3.942;2023-05-10T04:44:47;13.80;99.90
9223;DHT22;7557;51.698;3.942;2023-05-10T04:47:14;13.90;99.90
9223;DHT22;7557;51.698;3.942;2023-05-10T04:49:41;13.90;99.90
9223;DHT22;7557;51.698;3.942;2023-05-10T04:52:09;13.90;99.90
9223;DHT22;7557;51.698;3.942;2023-05-10T04:54:37;14.00;99.90
9223;DHT22;7557;51.698;3.942;2023-05-10T04:57:04;14.00;99.90
9223;DHT22;7557;51.698;3.942;2023-05-10T04:59:31;14.00;99.90
9223;DHT22;7557;51.698;3.942;2023-05-10T05:02:00;14.00;99.90
9223;DHT22;7557;51.698;3.942;2023-05-10T05:04:27;14.00;99.90
9223;DHT22;7557;51.698;3.942;2023-05-10T05:06:54;14.00;99.90
9223;DHT22;7557;51.698;3.942;2023-05-10T05:09:21;14.10;99.90
9223;DHT22;7557;51.698;3.942;2023-05-10T05:11:49;14.10;99.90
9223;DHT22;7557;51.698;3.942;2023-05-10T05:14:16;14.10;99.90
9223;DHT22;7557;51.698;3.942;2023-05-10T05:16:43;14.10;99.90
9223;DHT22;7557;51.698;3.942;2023-05-10T05:19:12;14.10;99.90
9223;DHT22;7557;51.698;3.942;2023-05-10T05:21:41;14.10;99.90
9223;DHT22;7557;51.698;3.942;2023-05-10T05:24:10;14.10;99.90
9223;DHT22;7557;51.698;3.942;2023-05-10T05:26:38;14.20;99.90
9223;DHT22;7557;51.698;3.942;2023-05-10T05:29:05;14.20;99.90
9223;DHT22;7557;51.698;3.942;2023-05-10T05:31:32;14.20;99.90
9223;DHT22;7557;51.698;3.942;2023-05-10T05:34:00;14.20;99.90
9223;DHT22;7557;51.698;3.942;2023-05-10T05:36:28;14.20;99.90
9223;DHT22;7557;51.698;3.942;2023-05-10T05:38:56;14.20;99.90
9223;DHT22;7557;51.698;3.942;2023-05-10T05:41:23;14.20;99.90
9223;DHT22;7557;51.698;3.942;2023-05-10T05:43:50;14.20;99.90
9223;DHT22;7557;51.698;3.942;2023-05-10T05:46:18;14.20;99.90
9223;DHT22;7557;51.698;3.942;2023-05-10T05:48:45;14.30;99.90
9223;DHT22;7557;51.698;3.942;2023-05-10T05:51:12;14.30;99.90
9223;DHT22;7557;51.698;3.942;2023-05-10T05:53:41;14.30;99.90
9223;DHT22;7557;51.698;3.942;2023-05-10T05:56:08;14.30;99.90
9223;DHT22;7557;51.698;3.942;2023-05-10T05:58:35;14.30;99.90
9223;DHT22;7557;51.698;3.942;2023-05-10T06:01:02;14.40;99.90
9223;DHT22;7557;51.698;3.942;2023-05-10T06:03:30;14.40;99.90
9223;DHT22;7557;51.698;3.942;2023-05-10T06:05:57;14.40;99.90
9223;DHT22;7557;51.698;3.942;2023-05-10T06:08:24;14.40;99.90
9223;DHT22;7557;51.698;3.942;2023-05-10T06:10:53;14.40;99.90
9223;DHT22;7557;51.698;3.942;2023-05-10T06:13:20;14.50;99.90
9223;DHT22;7557;51.698;3.942;2023-05-10T06:15:47;14.50;99.90
9223;DHT22;7557;51.698;3.942;2023-05-10T06:18:14;14.50;99.90
9223;DHT22;7557;51.698;3.942;2023-05-10T06:20:41;14.50;99.90
9223;DHT22;7557;51.698;3.942;2023-05-10T06:23:09;14.50;99.90
9223;DHT22;7557;51.698;3.942;2023-05-10T06:25:36;14.60;99.90
9223;DHT22;7557;51.698;3.942;2023-05-10T06:28:05;14.60;99.90
9223;DHT22;7557;51.698;3.942;2023-05-10T06:30:32;14.70;99.90
9223;DHT22;7557;51.698;3.942;2023-05-10T06:32:59;14.70;99.90
9223;DHT22;7557;51.698;3.942;2023-05-10T06:35:26;14.70;99.90
9223;DHT22;7557;51.698;3.942;2023-05-10T06:37:55;14.80;99.90
9223;DHT22;7557;51.698;3.942;2023-05-10T06:40:22;14.80;99.90
9223;DHT22;7557;51.698;3.942;2023-05-10T06:42:49;14.90;99.90
9223;DHT22;7557;51.698;3.942;2023-05-10T06:45:18;14.90;99.90
9223;DHT22;7557;51.698;3.942;2023-05-10T06:47:45;14.90;99.90
9223;DHT22;7557;51.698;3.942;2023-05-10T06:50:12;14.90;99.90
9223;DHT22;7557;51.698;3.942;2023-05-10T06:52:40;14.90;99.90
9223;DHT22;7557;51.698;3.942;2023-05-10T06:55:08;14.90;99.90
9223;DHT22;7557;51.698;3.942;2023-05-10T06:57:36;14.90;99.90
9223;DHT22;7557;51.698;3.942;2023-05-10T07:00:04;14.90;99.90
9223;DHT22;7557;51.698;3.942;2023-05-10T07:02:33;15.00;99.90
9223;DHT22;7557;51.698;3.942;2023-05-10T07:05:00;15.00;99.90
9223;DHT22;7557;51.698;3.942;2023-05-10T07:07:28;15.00;99.90
9223;DHT22;7557;51.698;3.942;2023-05-10T07:09:55;15.00;99.90
9223;DHT22;7557;51.698;3.942;2023-05-10T07:12:23;14.90;99.90
9223;DHT22;7557;51.698;3.942;2023-05-10T07:14:50;14.90;99.90
9223;DHT22;7557;51.698;3.942;2023-05-10T07:17:17;14.90;99.90
9223;DHT22;7557;51.698;3.942;2023-05-10T07:19:46;14.90;99.90
9223;DHT22;7557;51.698;3.942;2023-05-10T07:22:14;14.90;99.90
9223;DHT22;7557;51.698;3.942;2023-05-10T07:24:43;15.00;99.90
9223;DHT22;7557;51.698;3.942;2023-05-10T07:27:10;15.00;99.90
9223;DHT22;7557;51.698;3.942;2023-05-10T07:29:38;15.10;99.90
9223;DHT22;7557;51.698;3.942;2023-05-10T07:32:06;15.10;99.90
9223;DHT22;7557;51.698;3.942;2023-05-10T07:34:33;15.20;99.90
9223;DHT22;7557;51.698;3.942;2023-05-10T07:37:02;15.30;99.90
9223;DHT22;7557;51.698;3.942;2023-05-10T07:39:29;15.40;99.90
9223;DHT22;7557;51.698;3.942;2023-05-10T07:41:56;15.50;99.90
9223;DHT22;7557;51.698;3.942;2023-05-10T07:44:23;15.50;99.90
9223;DHT22;7557;51.698;3.942;2023-05-10T07:46:51;15.60;99.90
9223;DHT22;7557;51.698;3.942;2023-05-10T07:49:18;15.60;99.90
9223;DHT22;7557;51.698;3.942;2023-05-10T07:51:45;15.70;99.90
9223;DHT22;7557;51.698;3.942;2023-05-10T07:54:14;15.70;99.90
9223;DHT22;7557;51.698;3.942;2023-05-10T07:56:41;15.80;99.90
9223;DHT22;7557;51.698;3.942;2023-05-10T07:59:15;15.90;99.90
9223;DHT22;7557;51.698;3.942;2023-05-10T08:01:42;16.00;99.90
9223;DHT22;7557;51.698;3.942;2023-05-10T08:04:10;16.00;99.90
9223;DHT22;7557;51.698;3.942;2023-05-10T08:06:37;16.00;99.90
9223;DHT22;7557;51.698;3.942;2023-05-10T08:09:04;16.00;99.90
9223;DHT22;7557;51.698;3.942;2023-05-10T08:11:33;16.00;99.90
9223;DHT22;7557;51.698;3.942;2023-05-10T08:14:00;16.10;99.90
9223;DHT22;7557;51.698;3.942;2023-05-10T08:16:28;16.10;99.90
9223;DHT22;7557;51.698;3.942;2023-05-10T08:18:55;16.10;99.90
9223;DHT22;7557;51.698;3.942;2023-05-10T08:21:22;16.20;99.90
9223;DHT22;7557;51.698;3.942;2023-05-10T08:23:50;16.20;99.90
9223;DHT22;7557;51.698;3.942;2023-05-10T08:26:17;16.10;99.90
9223;DHT22;7557;51.698;3.942;2023-05-10T08:28:46;16.10;99.90
9223;DHT22;7557;51.698;3.942;2023-05-10T08:31:13;16.10;99.90
9223;DHT22;7557;51.698;3.942;2023-05-10T08:33:40;16.10;99.90
9223;DHT22;7557;51.698;3.942;2023-05-10T08:36:08;16.10;99.90
9223;DHT22;7557;51.698;3.942;2023-05-10T08:38:35;16.00;99.90
9223;DHT22;7557;51.698;3.942;2023-05-10T08:41:02;16.00;99.90
9223;DHT22;7557;51.698;3.942;2023-05-10T08:43:30;16.00;99.90
9223;DHT22;7557;51.698;3.942;2023-05-10T08:46:01;16.10;99.90
9223;DHT22;7557;51.698;3.942;2023-05-10T08:48:29;16.10;99.90
9223;DHT22;7557;51.698;3.942;2023-05-10T08:50:58;16.20;99.90
9223;DHT22;7557;51.698;3.942;2023-05-10T08:53:27;16.30;99.90
9223;DHT22;7557;51.698;3.942;2023-05-10T08:55:55;16.30;99.90
9223;DHT22;7557;51.698;3.942;2023-05-10T08:58:23;16.40;99.90
9223;DHT22;7557;51.698;3.942;2023-05-10T09:00:50;16.40;99.90
9223;DHT22;7557;51.698;3.942;2023-05-10T09:03:19;16.40;99.90
9223;DHT22;7557;51.698;3.942;2023-05-10T09:05:46;16.50;99.90
9223;DHT22;7557;51.698;3.942;2023-05-10T09:08:14;16.50;99.90
9223;DHT22;7557;51.698;3.942;2023-05-10T09:10:43;16.50;99.90
9223;DHT22;7557;51.698;3.942;2023-05-10T09:13:14;16.50;99.90
9223;DHT22;7557;51.698;3.942;2023-05-10T09:15:44;16.60;99.90
9223;DHT22;7557;51.698;3.942;2023-05-10T09:18:12;16.60;99.90
9223;DHT22;7557;51.698;3.942;2023-05-10T09:20:41;16.60;99.90
9223;DHT22;7557;51.698;3.942;2023-05-10T09:23:09;16.70;99.90
9223;DHT22;7557;51.698;3.942;2023-05-10T09:25:37;16.70;99.90
9223;DHT22;7557;51.698;3.942;2023-05-10T09:28:06;16.70;99.90
9223;DHT22;7557;51.698;3.942;2023-05-10T09:30:34;16.70;99.90
9223;DHT22;7557;51.698;3.942;2023-05-10T09:33:02;16.80;99.90
9223;DHT22;7557;51.698;3.942;2023-05-10T09:35:30;16.80;99.90
9223;DHT22;7557;51.698;3.942;2023-05-10T09:38:02;16.80;99.90
9223;DHT22;7557;51.698;3.942;2023-05-10T09:40:30;16.80;99.90
9223;DHT22;7557;51.698;3.942;2023-05-10T09:42:58;16.80;99.90
9223;DHT22;7557;51.698;3.942;2023-05-10T09:45:27;16.90;99.90
9223;DHT22;7557;51.698;3.942;2023-05-10T09:47:55;16.90;99.90
9223;DHT22;7557;51.698;3.942;2023-05-10T09:50:23;16.90;99.90
9223;DHT22;7557;51.698;3.942;2023-05-10T09:52:51;16.80;99.90
9223;DHT22;7557;51.698;3.942;2023-05-10T09:55:22;16.80;99.90
9223;DHT22;7557;51.698;3.942;2023-05-10T09:57:58;16.80;99.90
9223;DHT22;7557;51.698;3.942;2023-05-10T10:00:27;16.80;99.90
9223;DHT22;7557;51.698;3.942;2023-05-10T10:02:55;16.80;99.90
9223;DHT22;7557;51.698;3.942;2023-05-10T10:05:28;16.80;99.90
9223;DHT22;7557;51.698;3.942;2023-05-10T10:07:56;16.80;99.90
9223;DHT22;7557;51.698;3.942;2023-05-10T10:10:26;16.80;99.90
9223;DHT22;7557;51.698;3.942;2023-05-10T10:12:54;16.80;99.90
9223;DHT22;7557;51.698;3.942;2023-05-10T10:15:22;16.80;99.90
9223;DHT22;7557;51.698;3.942;2023-05-10T10:17:50;16.80;99.90
9223;DHT22;7557;51.698;3.942;2023-05-10T10:20:19;16.70;99.90
9223;DHT22;7557;51.698;3.942;2023-05-10T10:22:47;16.70;99.90
9223;DHT22;7557;51.698;3.942;2023-05-10T10:25:15;16.70;99.90
9223;DHT22;7557;51.698;3.942;2023-05-10T10:27:54;16.80;99.90
9223;DHT22;7557;51.698;3.942;2023-05-10T10:30:37;16.80;99.90
9223;DHT22;7557;51.698;3.942;2023-05-10T10:33:20;16.80;99.90
9223;DHT22;7557;51.698;3.942;2023-05-10T10:35:57;16.80;99.90
9223;DHT22;7557;51.698;3.942;2023-05-10T10:38:25;16.80;99.90
9223;DHT22;7557;51.698;3.942;2023-05-10T10:41:02;16.80;99.90
9223;DHT22;7557;51.698;3.942;2023-05-10T10:43:31;16.80;99.90
9223;DHT22;7557;51.698;3.942;2023-05-10T10:46:10;16.80;99.90
9223;DHT22;7557;51.698;3.942;2023-05-10T10:48:39;16.90;99.90
9223;DHT22;7557;51.698;3.942;2023-05-10T10:51:06;16.90;99.90
9223;DHT22;7557;51.698;3.942;2023-05-10T10:53:33;16.90;99.90
9223;DHT22;7557;51.698;3.942;2023-05-10T10:56:08;16.90;99.90
9223;DHT22;7557;51.698;3.942;2023-05-10T10:58:38;16.90;99.90
9223;DHT22;7557;51.698;3.942;2023-05-10T11:01:14;16.80;99.90
9223;DHT22;7557;51.698;3.942;2023-05-10T11:04:16;16.80;99.90
9223;DHT22;7557;51.698;3.942;2023-05-10T11:06:42;16.80;99.90
9223;DHT22;7557;51.698;3.942;2023-05-10T11:09:11;16.80;99.90
9223;DHT22;7557;51.698;3.942;2023-05-10T11:11:49;16.80;99.90
9223;DHT22;7557;51.698;3.942;2023-05-10T11:14:21;16.80;99.90
9223;DHT22;7557;51.698;3.942;2023-05-10T11:16:49;16.80;99.90
9223;DHT22;7557;51.698;3.942;2023-05-10T11:19:17;16.80;99.90
9223;DHT22;7557;51.698;3.942;2023-05-10T11:21:46;16.80;99.90
9223;DHT22;7557;51.698;3.942;2023-05-10T11:24:14;16.80;99.90
9223;DHT22;7557;51.698;3.942;2023-05-10T11:26:42;16.80;99.90
9223;DHT22;7557;51.698;3.942;2023-05-10T11:29:09;16.80;99.90
9223;DHT22;7557;51.698;3.942;2023-05-10T11:31:43;16.80;99.90
9223;DHT22;7557;51.698;3.942;2023-05-10T11:34:13;16.80;99.90
9223;DHT22;7557;51.698;3.942;2023-05-10T11:36:51;16.80;99.90
9223;DHT22;7557;51.698;3.942;2023-05-10T11:39:19;16.80;99.90
9223;DHT22;7557;51.698;3.942;2023-05-10T11:41:49;16.70;99.90
9223;DHT22;7557;51.698;3.942;2023-05-10T11:44:16;16.70;99.90
9223;DHT22;7557;51.698;3.942;2023-05-10T11:46:45;16.70;99.90
9223;DHT22;7557;51.698;3.942;2023-05-10T11:49:12;16.60;99.90
9223;DHT22;7557;51.698;3.942;2023-05-10T11:51:39;16.60;99.90
9223;DHT22;7557;51.698;3.942;2023-05-10T11:54:10;16.50;99.90
9223;DHT22;7557;51.698;3.942;2023-05-10T11:56:38;16.40;99.90
9223;DHT22;7557;51.698;3.942;2023-05-10T11:59:06;16.40;99.90
9223;DHT22;7557;51.698;3.942;2023-05-10T12:01:34;16.40;99.90
9223;DHT22;7557;51.698;3.942;2023-05-10T12:04:02;16.40;99.90
9223;DHT22;7557;51.698;3.942;2023-05-10T12:06:31;16.40;99.90
9223;DHT22;7557;51.698;3.942;2023-05-10T12:09:01;16.40;99.90
9223;DHT22;7557;51.698;3.942;2023-05-10T12:11:32;16.50;99.90
9223;DHT22;7557;51.698;3.942;2023-05-10T12:14:04;16.50;99.90
9223;DHT22;7557;51.698;3.942;2023-05-10T12:16:32;16.60;99.90
9223;DHT22;7557;51.698;3.942;2023-05-10T12:19:02;16.60;99.90
9223;DHT22;7557;51.698;3.942;2023-05-10T12:21:29;16.70;99.90
9223;DHT22;7557;51.698;3.942;2023-05-10T12:24:01;16.70;99.90
9223;DHT22;7557;51.698;3.942;2023-05-10T12:26:28;16.70;99.90
9223;DHT22;7557;51.698;3.942;2023-05-10T12:29:11;16.70;99.90
9223;DHT22;7557;51.698;3.942;2023-05-10T12:31:52;16.80;99.90
9223;DHT22;7557;51.698;3.942;2023-05-10T12:34:25;16.80;99.90
9223;DHT22;7557;51.698;3.942;2023-05-10T12:36:53;16.80;99.90
9223;DHT22;7557;51.698;3.942;2023-05-10T12:39:21;16.80;99.90
9223;DHT22;7557;51.698;3.942;2023-05-10T12:41:48;16.80;99.90
9223;DHT22;7557;51.698;3.942;2023-05-10T12:44:15;16.70;99.90
9223;DHT22;7557;51.698;3.942;2023-05-10T12:46:42;16.70;99.90
9223;DHT22;7557;51.698;3.942;2023-05-10T12:49:10;16.70;99.90
9223;DHT22;7557;51.698;3.942;2023-05-10T12:51:38;16.70;99.90
9223;DHT22;7557;51.698;3.942;2023-05-10T12:54:06;16.70;99.90
9223;DHT22;7557;51.698;3.942;2023-05-10T12:56:33;16.80;99.90
9223;DHT22;7557;51.698;3.942;2023-05-10T12:59:01;16.80;99.90
9223;DHT22;7557;51.698;3.942;2023-05-10T13:01:28;16.90;99.90
9223;DHT22;7557;51.698;3.942;2023-05-10T13:03:56;17.00;99.90
9223;DHT22;7557;51.698;3.942;2023-05-10T13:06:23;17.00;99.90
9223;DHT22;7557;51.698;3.942;2023-05-10T13:08:52;17.00;99.90
9223;DHT22;7557;51.698;3.942;2023-05-10T13:11:20;17.00;99.90
9223;DHT22;7557;51.698;3.942;2023-05-10T13:13:47;16.90;99.90
9223;DHT22;7557;51.698;3.942;2023-05-10T13:16:15;16.90;99.90
9223;DHT22;7557;51.698;3.942;2023-05-10T13:18:42;16.90;99.90
9223;DHT22;7557;51.698;3.942;2023-05-10T13:21:09;16.80;99.90
9223;DHT22;7557;51.698;3.942;2023-05-10T13:23:36;16.80;99.90
9223;DHT22;7557;51.698;3.942;2023-05-10T13:26:05;16.70;99.90
9223;DHT22;7557;51.698;3.942;2023-05-10T13:28:33;16.70;99.90
9223;DHT22;7557;51.698;3.942;2023-05-10T13:31:00;16.70;99.90
9223;DHT22;7557;51.698;3.942;2023-05-10T13:33:28;16.70;99.90
9223;DHT22;7557;51.698;3.942;2023-05-10T13:35:56;16.70;99.90
9223;DHT22;7557;51.698;3.942;2023-05-10T13:38:23;16.80;99.90
9223;DHT22;7557;51.698;3.942;2023-05-10T13:40:51;16.80;99.90
9223;DHT22;7557;51.698;3.942;2023-05-10T13:43:20;16.80;99.90
9223;DHT22;7557;51.698;3.942;2023-05-10T13:45:47;16.80;99.90
9223;DHT22;7557;51.698;3.942;2023-05-10T13:48:16;16.80;99.90
9223;DHT22;7557;51.698;3.942;2023-05-10T13:50:44;16.80;99.90
9223;DHT22;7557;51.698;3.942;2023-05-10T13:53:12;16.80;99.90
9223;DHT22;7557;51.698;3.942;2023-05-10T13:55:40;16.70;99.90
9223;DHT22;7557;51.698;3.942;2023-05-10T13:58:08;16.60;99.90
9223;DHT22;7557;51.698;3.942;2023-05-10T14:00:36;16.60;99.90
9223;DHT22;7557;51.698;3.942;2023-05-10T14:03:04;16.60;99.90
9223;DHT22;7557;51.698;3.942;2023-05-10T14:05:34;16.50;99.90
9223;DHT22;7557;51.698;3.942;2023-05-10T14:08:03;16.60;99.90
9223;DHT22;7557;51.698;3.942;2023-05-10T14:10:30;16.60;99.90
9223;DHT22;7557;51.698;3.942;2023-05-10T14:12:58;16.60;99.90
9223;DHT22;7557;51.698;3.942;2023-05-10T14:15:25;16.70;99.90
9223;DHT22;7557;51.698;3.942;2023-05-10T14:17:54;16.70;99.90
9223;DHT22;7557;51.698;3.942;2023-05-10T14:20:21;16.80;99.90
9223;DHT22;7557;51.698;3.942;2023-05-10T14:22:49;16.80;99.90
9223;DHT22;7557;51.698;3.942;2023-05-10T14:25:18;16.80;99.90
9223;DHT22;7557;51.698;3.942;2023-05-10T14:27:46;16.80;99.90
9223;DHT22;7557;51.698;3.942;2023-05-10T14:30:14;16.80;99.90
9223;DHT22;7557;51.698;3.942;2023-05-10T14:32:43;16.70;99.90
9223;DHT22;7557;51.698;3.942;2023-05-10T14:35:12;16.70;99.90
9223;DHT22;7557;51.698;3.942;2023-05-10T14:37:40;16.70;99.90
9223;DHT22;7557;51.698;3.942;2023-05-10T14:40:09;16.70;99.90
9223;DHT22;7557;51.698;3.942;2023-05-10T14:42:37;16.60;99.90
9223;DHT22;7557;51.698;3.942;2023-05-10T14:45:05;16.60;99.90
9223;DHT22;7557;51.698;3.942;2023-05-10T14:47:32;16.60;99.90
9223;DHT22;7557;51.698;3.942;2023-05-10T14:50:00;16.50;99.90
9223;DHT22;7557;51.698;3.942;2023-05-10T14:52:29;16.50;99.90
9223;DHT22;7557;51.698;3.942;2023-05-10T14:54:57;16.40;99.90
9223;DHT22;7557;51.698;3.942;2023-05-10T14:57:26;16.40;99.90
9223;DHT22;7557;51.698;3.942;2023-05-10T14:59:55;16.40;99.90
9223;DHT22;7557;51.698;3.942;2023-05-10T15:02:22;16.30;99.90
9223;DHT22;7557;51.698;3.942;2023-05-10T15:04:50;16.30;99.90
9223;DHT22;7557;51.698;3.942;2023-05-10T15:07:17;16.20;99.90
9223;DHT22;7557;51.698;3.942;2023-05-10T15:09:46;16.20;99.90
9223;DHT22;7557;51.698;3.942;2023-05-10T15:12:14;16.20;99.90
9223;DHT22;7557;51.698;3.942;2023-05-10T15:14:41;16.20;99.90
9223;DHT22;7557;51.698;3.942;2023-05-10T15:17:08;16.10;99.90
9223;DHT22;7557;51.698;3.942;2023-05-10T15:19:35;16.10;99.90
9223;DHT22;7557;51.698;3.942;2023-05-10T15:22:04;16.00;99.90
9223;DHT22;7557;51.698;3.942;2023-05-10T15:24:31;16.10;99.90
9223;DHT22;7557;51.698;3.942;2023-05-10T15:27:00;16.00;99.90
9223;DHT22;7557;51.698;3.942;2023-05-10T15:29:28;15.90;99.90
9223;DHT22;7557;51.698;3.942;2023-05-10T15:31:57;15.90;99.90
9223;DHT22;7557;51.698;3.942;2023-05-10T15:34:24;15.80;99.90
9223;DHT22;7557;51.698;3.942;2023-05-10T15:36:52;15.70;99.90
9223;DHT22;7557;51.698;3.942;2023-05-10T15:39:19;15.70;99.90
9223;DHT22;7557;51.698;3.942;2023-05-10T15:41:46;15.70;99.90
9223;DHT22;7557;51.698;3.942;2023-05-10T15:44:16;15.70;99.90
9223;DHT22;7557;51.698;3.942;2023-05-10T15:46:44;15.70;99.90
9223;DHT22;7557;51.698;3.942;2023-05-10T15:49:11;15.70;99.90
9223;DHT22;7557;51.698;3.942;2023-05-10T15:51:38;15.70;99.90
9223;DHT22;7557;51.698;3.942;2023-05-10T15:54:06;15.70;99.90
9223;DHT22;7557;51.698;3.942;2023-05-10T15:56:33;15.70;99.90
9223;DHT22;7557;51.698;3.942;2023-05-10T15:59:00;15.80;99.90
9223;DHT22;7557;51.698;3.942;2023-05-10T16:01:30;15.80;99.90
9223;DHT22;7557;51.698;3.942;2023-05-10T16:03:57;15.90;99.90
9223;DHT22;7557;51.698;3.942;2023-05-10T16:06:25;15.90;99.90
9223;DHT22;7557;51.698;3.942;2023-05-10T16:08:52;15.90;99.90
9223;DHT22;7557;51.698;3.942;2023-05-10T16:11:19;15.90;99.90
9223;DHT22;7557;51.698;3.942;2023-05-10T16:13:47;16.00;99.90
9223;DHT22;7557;51.698;3.942;2023-05-10T16:16:14;16.00;99.90
9223;DHT22;7557;51.698;3.942;2023-05-10T16:18:43;16.00;99.90